createdAt,value
2023-02-18T00:01:24.133Z,13.48
2023-02-18T00:03:52.881Z,14.40
2023-02-18T00:06:23.287Z,15.35
2023-02-18T00:08:52.364Z,16.48
2023-02-18T00:11:23.199Z,18.10
2023-02-18T00:13:52.723Z,14.60
2023-02-18T00:16:20.933Z,16.83
2023-02-18T00:18:49.003Z,15.95
2023-02-18T00:21:17.082Z,15.63
2023-02-18T00:23:45.308Z,19.98
2023-02-18T00:26:17.062Z,16.98
2023-02-18T00:28:48.435Z,20.48
2023-02-18T00:31:18.803Z,15.90
2023-02-18T00:33:46.900Z,17.15
2023-02-18T00:36:16.790Z,16.10
2023-02-18T00:38:46.125Z,18.08
2023-02-18T00:41:14.445Z,16.90
2023-02-18T00:43:42.477Z,18.00
2023-02-18T00:46:12.097Z,17.05
2023-02-18T00:48:40.144Z,16.23
2023-02-18T00:51:09.035Z,14.43
2023-02-18T00:53:37.308Z,15.35
2023-02-18T00:56:06.271Z,17.77
2023-02-18T00:58:35.114Z,17.95
2023-02-18T01:01:07.516Z,16.05
2023-02-18T01:03:39.742Z,18.67
2023-02-18T01:06:09.029Z,21.10
2023-02-18T01:08:37.658Z,24.33
2023-02-18T01:11:08.487Z,18.63
2023-02-18T01:13:36.787Z,20.35
2023-02-18T01:16:06.048Z,17.52
2023-02-18T01:18:34.293Z,22.13
2023-02-18T01:21:05.153Z,20.15
2023-02-18T01:23:33.072Z,20.17
2023-02-18T01:26:01.214Z,19.83
2023-02-18T01:28:31.078Z,16.25
2023-02-18T01:30:59.052Z,18.38
2023-02-18T01:33:27.005Z,21.23
2023-02-18T01:35:54.914Z,18.23
2023-02-18T01:38:26.686Z,18.17
2023-02-18T01:40:55.184Z,19.20
2023-02-18T01:43:24.137Z,21.27
2023-02-18T01:46:03.937Z,20.38
2023-02-18T01:48:36.145Z,23.60
2023-02-18T01:51:10.112Z,20.25
2023-02-18T01:53:46.817Z,20.17
2023-02-18T01:56:20.960Z,21.80
2023-02-18T01:58:49.745Z,20.45
2023-02-18T02:01:18.831Z,18.10
2023-02-18T02:03:46.747Z,21.23
2023-02-18T02:06:19.816Z,17.52
2023-02-18T02:08:56.751Z,17.17
2023-02-18T02:11:46.110Z,16.75
2023-02-18T02:14:23.440Z,18.88
2023-02-18T02:17:03.083Z,19.55
2023-02-18T02:22:43.656Z,17.00
2023-02-18T02:25:24.493Z,19.48
2023-02-18T02:28:42.782Z,19.05
2023-02-18T02:31:48.813Z,17.02
2023-02-18T02:34:52.544Z,15.95
2023-02-18T02:37:28.563Z,18.20
2023-02-18T02:40:07.977Z,17.60
2023-02-18T02:42:51.113Z,17.95
2023-02-18T02:45:25.119Z,17.98
2023-02-18T02:48:01.736Z,15.98
2023-02-18T02:50:36.539Z,16.83
2023-02-18T02:53:15.612Z,16.52
2023-02-18T02:55:43.502Z,18.48
2023-02-18T02:58:17.027Z,17.10
2023-02-18T03:01:14.975Z,15.90
2023-02-18T03:04:10.667Z,17.73
2023-02-18T03:06:55.640Z,15.23
2023-02-18T03:09:34.051Z,13.88
2023-02-18T03:12:08.242Z,13.23
2023-02-18T03:14:48.325Z,12.23
2023-02-18T03:17:24.263Z,12.68
2023-02-18T03:19:58.744Z,14.02
2023-02-18T03:22:31.554Z,14.20
2023-02-18T03:25:04.966Z,17.42
2023-02-18T03:27:38.236Z,15.43
2023-02-18T03:30:13.147Z,12.32
2023-02-18T03:32:42.144Z,16.08
2023-02-18T03:35:15.107Z,19.08
2023-02-18T03:37:48.989Z,18.95
2023-02-18T03:40:19.926Z,17.52
2023-02-18T03:42:52.919Z,17.50
2023-02-18T03:45:21.852Z,19.52
2023-02-18T03:47:49.828Z,19.45
2023-02-18T03:50:18.148Z,17.90
2023-02-18T03:52:46.381Z,16.40
2023-02-18T03:55:14.773Z,13.88
2023-02-18T03:57:44.172Z,14.18
2023-02-18T04:00:13.479Z,12.10
2023-02-18T04:02:41.788Z,9.15
2023-02-18T04:05:10.240Z,10.25
2023-02-18T04:07:38.300Z,9.07
2023-02-18T04:10:08.449Z,8.00
2023-02-18T04:12:36.546Z,7.82
2023-02-18T04:15:06.754Z,8.30
2023-02-18T04:17:35.443Z,5.90
2023-02-18T04:20:04.941Z,5.75
2023-02-18T04:22:33.386Z,5.15
2023-02-18T04:25:01.631Z,5.32
2023-02-18T04:27:29.854Z,5.75
2023-02-18T04:29:58.667Z,4.80
2023-02-18T04:32:28.117Z,5.00
2023-02-18T04:34:56.224Z,4.72
2023-02-18T04:37:24.325Z,5.00
2023-02-18T04:39:52.402Z,6.20
2023-02-18T04:42:20.391Z,4.05
2023-02-18T04:44:48.335Z,3.05
2023-02-18T04:47:16.267Z,3.25
2023-02-18T04:49:45.567Z,3.63
2023-02-18T04:52:13.515Z,3.55
2023-02-18T04:54:41.526Z,3.58
2023-02-18T04:57:09.507Z,2.85
2023-02-18T04:59:37.726Z,6.20
2023-02-18T05:02:05.947Z,4.03
2023-02-18T05:04:34.052Z,3.20
2023-02-18T05:07:03.425Z,3.08
2023-02-18T05:09:31.409Z,3.33
2023-02-18T05:11:59.496Z,4.30
2023-02-18T05:14:27.544Z,5.32
2023-02-18T05:16:55.744Z,2.72
2023-02-18T05:19:23.716Z,1.92
2023-02-18T05:21:51.683Z,1.92
2023-02-18T05:24:20.980Z,2.00
2023-02-18T05:26:48.865Z,2.53
2023-02-18T05:29:16.879Z,2.10
2023-02-18T05:31:44.943Z,2.78
2023-02-18T05:34:13.039Z,2.20
2023-02-18T05:36:41.116Z,2.45
2023-02-18T05:39:09.079Z,4.00
2023-02-18T05:41:38.532Z,2.80
2023-02-18T05:44:24.311Z,2.63
2023-02-18T05:46:52.274Z,3.47
2023-02-18T05:49:20.293Z,3.97
2023-02-18T05:51:48.384Z,2.90
2023-02-18T05:54:16.434Z,3.67
2023-02-18T05:56:45.814Z,3.00
2023-02-18T05:59:13.814Z,3.00
2023-02-18T06:01:42.257Z,2.78
2023-02-18T06:04:10.914Z,7.00
2023-02-18T06:06:39.027Z,5.18
2023-02-18T06:09:07.927Z,2.75
2023-02-18T06:11:36.379Z,3.75
2023-02-18T06:14:06.423Z,3.00
2023-02-18T06:16:34.502Z,3.20
2023-02-18T06:19:02.526Z,4.82
2023-02-18T06:21:30.625Z,4.25
2023-02-18T06:23:58.559Z,4.88
2023-02-18T06:26:27.757Z,3.30
2023-02-18T06:28:55.805Z,4.78
2023-02-18T06:31:25.544Z,4.22
2023-02-18T06:33:56.545Z,5.10
2023-02-18T06:36:24.630Z,3.35
2023-02-18T06:38:54.032Z,5.28
2023-02-18T06:41:22.060Z,4.28
2023-02-18T06:43:50.117Z,5.15
2023-02-18T06:46:21.083Z,5.88
2023-02-18T06:48:50.552Z,6.10
2023-02-18T06:51:19.412Z,9.30
2023-02-18T06:53:47.816Z,8.18
2023-02-18T06:56:15.885Z,8.07
2023-02-18T06:58:44.084Z,9.30
2023-02-18T07:01:12.250Z,9.32
2023-02-18T07:03:40.371Z,10.77
2023-02-18T07:06:16.473Z,11.15
2023-02-18T07:08:44.448Z,9.82
2023-02-18T07:11:12.426Z,10.40
2023-02-18T07:13:40.381Z,8.98
2023-02-18T07:16:08.854Z,9.07
2023-02-18T07:18:36.892Z,9.82
2023-02-18T07:21:05.120Z,7.78
2023-02-18T07:23:34.414Z,9.25
2023-02-18T07:26:07.262Z,7.15
2023-02-18T07:28:35.928Z,9.98
2023-02-18T07:31:04.471Z,7.25
2023-02-18T07:33:32.946Z,8.10
2023-02-18T07:36:02.286Z,6.90
2023-02-18T07:38:31.030Z,9.50
2023-02-18T07:41:00.393Z,7.75
2023-02-18T07:43:28.332Z,5.72
2023-02-18T07:45:56.347Z,5.35
2023-02-18T07:48:24.343Z,4.03
2023-02-18T07:50:52.372Z,4.32
2023-02-18T07:53:20.418Z,5.75
2023-02-18T07:55:51.336Z,5.38
2023-02-18T07:58:22.101Z,4.70
2023-02-18T08:00:51.035Z,4.55
2023-02-18T08:03:20.593Z,4.70
2023-02-18T08:05:50.202Z,8.45
2023-02-18T08:08:21.321Z,4.72
2023-02-18T08:10:50.346Z,4.95
2023-02-18T08:13:19.775Z,4.70
2023-02-18T08:15:47.757Z,5.43
2023-02-18T08:18:18.596Z,3.53
2023-02-18T08:20:47.213Z,6.75
2023-02-18T08:23:16.232Z,3.42
2023-02-18T08:25:49.992Z,4.10
2023-02-18T08:28:19.984Z,5.53
2023-02-18T08:30:48.544Z,4.05
2023-02-18T08:33:17.361Z,3.92
2023-02-18T08:35:46.804Z,5.53
2023-02-18T08:38:14.917Z,3.42
2023-02-18T08:40:42.905Z,6.15
2023-02-18T08:43:11.030Z,4.18
2023-02-18T08:45:40.777Z,10.55
2023-02-18T08:48:18.537Z,6.70
2023-02-18T08:50:48.412Z,8.70
2023-02-18T08:53:16.454Z,8.70
2023-02-18T08:55:45.075Z,6.70
2023-02-18T08:58:13.721Z,8.43
2023-02-18T09:00:44.083Z,10.75
2023-02-18T09:03:13.959Z,10.68
2023-02-18T09:05:42.126Z,10.10
2023-02-18T09:08:10.147Z,8.02
2023-02-18T09:10:39.432Z,14.07
2023-02-18T09:13:07.521Z,13.70
2023-02-18T09:15:35.630Z,9.48
2023-02-18T09:18:05.204Z,14.82
2023-02-18T09:20:33.152Z,14.20
2023-02-18T09:23:06.180Z,11.75
2023-02-18T09:25:36.973Z,10.68
2023-02-18T09:28:05.137Z,8.18
2023-02-18T09:30:36.236Z,15.52
2023-02-18T09:33:05.660Z,20.02
2023-02-18T09:35:33.617Z,13.55
2023-02-18T09:38:01.651Z,14.05
2023-02-18T09:40:33.976Z,12.52
2023-02-18T09:43:02.627Z,11.93
2023-02-18T09:45:31.202Z,11.63
2023-02-18T09:47:59.567Z,12.13
2023-02-18T09:50:31.326Z,15.57
2023-02-18T09:53:00.566Z,14.07
2023-02-18T09:55:31.400Z,19.50
2023-02-18T09:58:02.914Z,12.10
2023-02-18T10:00:36.141Z,15.27
2023-02-18T10:03:06.817Z,16.05
2023-02-18T10:05:37.822Z,12.45
2023-02-18T10:08:08.059Z,16.02
2023-02-18T10:10:40.413Z,16.85
2023-02-18T10:13:15.083Z,11.27
2023-02-18T10:15:44.654Z,18.37
2023-02-18T10:18:24.130Z,19.00
2023-02-18T10:20:57.100Z,20.83
2023-02-18T10:23:26.295Z,16.55
2023-02-18T10:25:54.608Z,19.25
2023-02-18T10:28:26.037Z,19.65
2023-02-18T10:30:59.141Z,15.15
2023-02-18T10:33:34.582Z,14.77
2023-02-18T10:36:16.959Z,17.10
2023-02-18T10:38:58.020Z,13.80
2023-02-18T10:41:33.749Z,19.50
2023-02-18T10:44:12.753Z,20.90
2023-02-18T10:46:51.402Z,17.35
2023-02-18T10:49:37.391Z,16.23
2023-02-18T10:54:51.714Z,17.52
2023-02-18T10:57:21.587Z,17.45
2023-02-18T10:59:58.555Z,14.88
2023-02-18T11:02:30.841Z,21.08
2023-02-18T11:05:01.856Z,12.65
2023-02-18T11:07:35.032Z,14.73
2023-02-18T11:10:15.997Z,19.80
2023-02-18T11:12:47.249Z,17.45
2023-02-18T11:15:21.298Z,17.40
2023-02-18T11:17:51.831Z,16.58
2023-02-18T11:20:31.282Z,16.95
2023-02-18T11:23:18.913Z,15.10
2023-02-18T11:26:02.187Z,12.65
2023-02-18T11:28:45.491Z,18.90
2023-02-18T11:31:22.842Z,10.77
2023-02-18T11:33:53.733Z,7.10
2023-02-18T11:36:25.955Z,13.30
2023-02-18T11:38:57.755Z,8.65
2023-02-18T11:41:35.108Z,15.75
2023-02-18T11:44:05.937Z,13.07
2023-02-18T11:46:34.403Z,8.95
2023-02-18T11:49:22.352Z,5.13
2023-02-18T11:51:51.494Z,7.45
2023-02-18T11:54:26.140Z,5.45
2023-02-18T11:56:58.632Z,5.63
2023-02-18T11:59:27.148Z,4.82
2023-02-18T12:02:00.681Z,7.18
2023-02-18T12:04:32.708Z,7.47
2023-02-18T12:07:13.560Z,4.53
2023-02-18T12:09:48.492Z,6.40
2023-02-18T12:12:20.651Z,7.80
2023-02-18T12:14:48.636Z,5.55
2023-02-18T12:17:35.941Z,6.20
2023-02-18T12:20:28.702Z,5.82
2023-02-18T12:23:03.624Z,5.55
2023-02-18T12:25:41.714Z,4.15
2023-02-18T12:28:24.569Z,4.43
2023-02-18T12:31:29.500Z,3.75
2023-02-18T12:34:10.318Z,5.35
2023-02-18T12:36:54.704Z,4.35
2023-02-18T12:39:36.208Z,4.32
2023-02-18T12:42:30.036Z,4.13
2023-02-18T12:45:18.632Z,6.32
2023-02-18T12:48:02.716Z,7.15
2023-02-18T12:50:45.731Z,6.82
2023-02-18T12:53:31.847Z,7.07
2023-02-18T12:56:14.954Z,5.10
2023-02-18T12:58:57.136Z,8.35
2023-02-18T13:01:35.239Z,5.95
2023-02-18T13:04:27.910Z,5.32
2023-02-18T13:07:21.144Z,6.50
2023-02-18T13:10:25.764Z,6.63
2023-02-18T13:13:03.115Z,6.20
2023-02-18T13:15:40.264Z,5.90
2023-02-18T13:18:14.051Z,5.95
2023-02-18T13:20:46.080Z,6.28
2023-02-18T13:23:23.962Z,3.88
2023-02-18T13:25:59.508Z,7.93
2023-02-18T13:28:35.942Z,5.30
2023-02-18T13:31:20.729Z,7.63
2023-02-18T13:33:54.702Z,8.60
2023-02-18T13:36:35.057Z,4.25
2023-02-18T13:39:08.043Z,4.90
2023-02-18T13:41:38.187Z,5.03
2023-02-18T13:44:11.202Z,5.22
2023-02-18T13:46:54.317Z,6.95
2023-02-18T13:49:24.011Z,8.52
2023-02-18T13:51:52.886Z,8.00
2023-02-18T13:54:26.457Z,7.00
2023-02-18T13:56:58.429Z,13.35
2023-02-18T13:59:34.512Z,9.98
2023-02-18T14:02:31.860Z,19.90
2023-02-18T14:05:20.659Z,34.72
2023-02-18T14:07:51.572Z,7.38
2023-02-18T14:10:33.441Z,7.70
2023-02-18T14:13:23.833Z,7.05
2023-02-18T14:15:56.086Z,5.72
2023-02-18T14:18:35.401Z,9.35
2023-02-18T14:21:23.132Z,9.20
2023-02-18T14:23:59.628Z,8.73
2023-02-18T14:26:33.423Z,8.75
2023-02-18T14:29:09.769Z,11.90
2023-02-18T14:31:46.120Z,11.88
2023-02-18T14:34:47.241Z,7.35
2023-02-18T14:37:37.225Z,12.75
2023-02-18T14:40:23.919Z,12.80
2023-02-18T14:43:00.460Z,17.88
2023-02-18T14:45:39.536Z,10.88
2023-02-18T14:48:31.097Z,11.10
2023-02-18T14:51:01.238Z,8.85
2023-02-18T14:53:30.143Z,12.00
2023-02-18T14:56:00.879Z,10.30
2023-02-18T14:58:33.688Z,11.02
2023-02-18T15:01:07.941Z,6.68
2023-02-18T15:03:35.930Z,6.55
2023-02-18T15:06:06.960Z,9.65
2023-02-18T15:08:39.831Z,6.25
2023-02-18T15:11:08.986Z,8.52
2023-02-18T15:13:39.831Z,13.95
2023-02-18T15:16:10.689Z,8.50
2023-02-18T15:18:42.961Z,6.18
2023-02-18T15:21:21.023Z,8.52
2023-02-18T15:23:50.031Z,7.65
2023-02-18T15:26:18.958Z,7.95
2023-02-18T15:28:56.376Z,9.10
2023-02-18T15:31:27.874Z,8.80
2023-02-18T15:33:56.110Z,7.50
2023-02-18T15:36:28.135Z,6.50
2023-02-18T15:38:58.343Z,7.47
2023-02-18T15:41:26.482Z,7.45
2023-02-18T15:43:56.624Z,10.50
2023-02-18T15:46:26.450Z,9.73
2023-02-18T15:48:55.895Z,9.65
2023-02-18T15:51:29.457Z,8.57
2023-02-18T15:54:00.942Z,8.20
2023-02-18T15:56:33.649Z,7.28
2023-02-18T15:59:16.649Z,6.28
2023-02-18T16:01:48.576Z,13.93
2023-02-18T16:04:17.023Z,8.93
2023-02-18T16:06:53.126Z,7.90
2023-02-18T16:09:25.168Z,10.98
2023-02-18T16:11:59.289Z,8.98
2023-02-18T16:14:30.909Z,9.65
2023-02-18T16:17:09.804Z,14.55
2023-02-18T16:20:01.613Z,8.82
2023-02-18T16:22:38.113Z,11.52
2023-02-18T16:25:16.038Z,9.88
2023-02-18T16:27:55.248Z,11.57
2023-02-18T16:30:25.364Z,11.05
2023-02-18T16:32:54.849Z,13.35
2023-02-18T16:35:24.126Z,9.55
2023-02-18T16:37:54.832Z,16.33
2023-02-18T16:40:26.239Z,12.88
2023-02-18T16:42:55.592Z,10.30
2023-02-18T16:45:33.297Z,29.60
2023-02-18T16:48:01.354Z,13.60
2023-02-18T16:50:31.457Z,14.35
2023-02-18T16:53:01.710Z,19.00
2023-02-18T16:55:31.471Z,21.67
2023-02-18T16:57:59.524Z,12.05
2023-02-18T17:00:27.529Z,11.38
2023-02-18T17:02:57.970Z,13.35
2023-02-18T17:05:29.763Z,12.18
2023-02-18T17:08:02.516Z,13.77
2023-02-18T17:10:30.503Z,16.02
2023-02-18T17:12:58.509Z,11.70
2023-02-18T17:15:30.224Z,16.27
2023-02-18T17:17:59.672Z,16.30
2023-02-18T17:20:28.860Z,14.02
2023-02-18T17:22:57.026Z,11.68
2023-02-18T17:25:31.981Z,22.02
2023-02-18T17:27:59.967Z,14.80
2023-02-18T17:30:28.161Z,16.42
2023-02-18T17:32:56.404Z,12.43
2023-02-18T17:35:25.567Z,12.18
2023-02-18T17:37:53.613Z,17.20
2023-02-18T17:40:23.752Z,17.35
2023-02-18T17:42:55.164Z,16.25
2023-02-18T17:45:28.677Z,18.65
2023-02-18T17:47:57.617Z,14.35
2023-02-18T17:50:26.530Z,12.38
2023-02-18T17:52:55.329Z,17.80
2023-02-18T17:55:24.763Z,17.85
2023-02-18T17:57:54.716Z,13.75
2023-02-18T18:00:25.111Z,17.83
2023-02-18T18:02:53.432Z,18.13
2023-02-18T18:05:24.598Z,14.30
2023-02-18T18:07:53.197Z,12.02
2023-02-18T18:10:23.105Z,14.85
2023-02-18T18:12:51.165Z,12.63
2023-02-18T18:15:26.338Z,12.73
2023-02-18T18:17:54.710Z,10.82
2023-02-18T18:20:23.476Z,12.00
2023-02-18T18:22:52.335Z,12.38
2023-02-18T18:25:23.432Z,11.70
2023-02-18T18:27:52.894Z,9.10
2023-02-18T18:30:25.131Z,8.98
2023-02-18T18:32:53.567Z,10.48
2023-02-18T18:35:24.763Z,10.48
2023-02-18T18:37:53.465Z,11.15
2023-02-18T18:40:22.717Z,12.30
2023-02-18T18:42:50.744Z,8.25
2023-02-18T18:45:22.072Z,10.98
2023-02-18T18:47:52.204Z,12.13
2023-02-18T18:50:21.250Z,14.18
2023-02-18T18:52:51.588Z,18.23
2023-02-18T18:55:28.432Z,13.32
2023-02-18T18:57:57.129Z,13.30
2023-02-18T19:00:27.691Z,14.93
2023-02-18T19:02:57.093Z,8.70
2023-02-18T19:05:28.763Z,8.77
2023-02-18T19:07:58.319Z,11.80
2023-02-18T19:10:29.239Z,25.45
2023-02-18T19:13:02.835Z,15.20
2023-02-18T19:15:31.110Z,10.30
2023-02-18T19:18:00.578Z,9.27
2023-02-18T19:20:31.024Z,8.88
2023-02-18T19:22:58.995Z,8.00
2023-02-18T19:25:27.023Z,7.95
2023-02-18T19:27:55.115Z,7.65
2023-02-18T19:30:24.578Z,7.30
2023-02-18T19:32:54.780Z,8.45
2023-02-18T19:35:24.873Z,8.70
2023-02-18T19:37:52.861Z,13.88
2023-02-18T19:40:22.918Z,14.32
2023-02-18T19:42:51.432Z,18.38
2023-02-18T19:45:20.487Z,15.43
2023-02-18T19:47:53.313Z,18.25
2023-02-18T19:50:23.294Z,18.40
2023-02-18T19:52:53.191Z,15.98
2023-02-18T19:55:21.304Z,18.30
2023-02-18T19:57:49.665Z,19.45
2023-02-18T20:00:20.079Z,20.02
2023-02-18T20:02:48.124Z,18.05
2023-02-18T20:05:16.240Z,19.58
2023-02-18T20:07:46.834Z,19.50
2023-02-18T20:10:17.361Z,18.60
2023-02-18T20:12:45.391Z,17.30
2023-02-18T20:15:13.371Z,17.63
2023-02-18T20:17:41.302Z,15.07
2023-02-18T20:20:10.036Z,21.52
2023-02-18T20:22:37.967Z,18.83
2023-02-18T20:25:08.132Z,16.23
2023-02-18T20:27:37.555Z,18.20
2023-02-18T20:30:09.543Z,14.68
2023-02-18T20:32:37.946Z,15.52
2023-02-18T20:35:07.087Z,17.42
2023-02-18T20:37:35.211Z,17.17
2023-02-18T20:40:03.260Z,18.55
2023-02-18T20:42:33.354Z,18.27
2023-02-18T20:45:01.343Z,20.13
2023-02-18T20:47:29.327Z,16.50
2023-02-18T20:49:57.284Z,15.43
2023-02-18T20:52:25.251Z,18.40
2023-02-18T20:54:53.234Z,18.02
2023-02-18T20:57:21.269Z,17.95
2023-02-18T20:59:50.570Z,15.07
2023-02-18T21:02:18.582Z,15.30
2023-02-18T21:04:46.720Z,16.00
2023-02-18T21:07:14.770Z,15.70
2023-02-18T21:09:42.755Z,14.45
2023-02-18T21:12:11.001Z,14.13
2023-02-18T21:14:38.976Z,14.60
2023-02-18T21:17:09.517Z,15.05
2023-02-18T21:19:37.679Z,14.27
2023-02-18T21:22:06.039Z,15.35
2023-02-18T21:24:34.100Z,16.02
2023-02-18T21:27:02.096Z,13.25
2023-02-18T21:29:30.462Z,13.05
2023-02-18T21:31:58.557Z,17.52
2023-02-18T21:34:28.024Z,12.75
2023-02-18T21:36:56.077Z,15.85
2023-02-18T21:39:24.004Z,15.55
2023-02-18T21:41:51.964Z,14.98
2023-02-18T21:44:21.656Z,17.77
2023-02-18T21:46:52.838Z,15.63
2023-02-18T21:49:20.877Z,14.45
2023-02-18T21:52:00.578Z,13.95
2023-02-18T21:54:30.625Z,13.30
2023-02-18T21:57:00.225Z,13.13
2023-02-18T21:59:30.326Z,15.27
2023-02-18T22:01:59.828Z,16.45
2023-02-18T22:04:28.235Z,17.25
2023-02-18T22:06:58.273Z,16.88
2023-02-18T22:09:26.645Z,14.52
2023-02-18T22:11:54.827Z,13.20
2023-02-18T22:14:23.268Z,12.90
2023-02-18T22:16:51.228Z,10.85
2023-02-18T22:19:19.280Z,11.93
2023-02-18T22:21:47.234Z,11.77
2023-02-18T22:24:18.953Z,12.70
2023-02-18T22:26:48.353Z,11.25
2023-02-18T22:29:18.519Z,15.20
2023-02-18T22:31:47.976Z,13.57
2023-02-18T22:34:16.053Z,15.82
2023-02-18T22:36:44.164Z,11.98
2023-02-18T22:39:13.671Z,13.23
2023-02-18T22:41:43.693Z,11.65
2023-02-18T22:44:14.553Z,13.68
2023-02-18T22:46:42.610Z,13.13
2023-02-18T22:49:10.657Z,10.55
2023-02-18T22:51:40.515Z,13.18
2023-02-18T22:54:12.668Z,13.60
2023-02-18T22:56:42.050Z,11.65
2023-02-18T22:59:11.963Z,14.25
2023-02-18T23:01:42.448Z,14.32
2023-02-18T23:04:11.780Z,16.00
2023-02-18T23:06:41.606Z,16.73
2023-02-18T23:09:12.121Z,14.77
2023-02-18T23:11:40.049Z,15.70
2023-02-18T23:14:22.221Z,14.38
2023-02-18T23:17:10.091Z,13.35
2023-02-18T23:19:38.766Z,13.70
2023-02-18T23:22:06.936Z,14.73
2023-02-18T23:24:36.184Z,14.32
2023-02-18T23:27:05.338Z,14.63
2023-02-18T23:29:35.316Z,13.38
2023-02-18T23:32:03.446Z,12.77
2023-02-18T23:34:31.964Z,12.50
2023-02-18T23:37:00.246Z,11.40
2023-02-18T23:39:29.571Z,11.50
2023-02-18T23:41:57.807Z,11.45
2023-02-18T23:44:27.005Z,10.52
2023-02-18T23:46:56.567Z,9.93
2023-02-18T23:49:26.159Z,10.98
2023-02-18T23:51:55.642Z,11.27
2023-02-18T23:54:24.566Z,10.68
2023-02-18T23:56:52.574Z,12.50
2023-02-18T23:59:20.610Z,14.40
